sensor_id;sensor_type;location;lat;lon;timestamp;P1;durP1;ratioP1;P2;durP2;ratioP2
69030;SDS011;56083;48.774;8.942;2022-09-01T00:01:13;40.78;;;29.42;;
69030;SDS011;56083;48.774;8.942;2022-09-01T00:03:45;37.22;;;25.55;;
69030;SDS011;56083;48.774;8.942;2022-09-01T00:06:17;43.38;;;29.40;;
69030;SDS011;56083;48.774;8.942;2022-09-01T00:08:51;45.55;;;31.85;;
69030;SDS011;56083;48.774;8.942;2022-09-01T00:11:20;49.17;;;32.58;;
69030;SDS011;56083;48.774;8.942;2022-09-01T00:13:48;60.78;;;37.15;;
69030;SDS011;56083;48.774;8.942;2022-09-01T00:16:14;49.83;;;33.03;;
69030;SDS011;56083;48.774;8.942;2022-09-01T00:18:42;55.83;;;33.03;;
69030;SDS011;56083;48.774;8.942;2022-09-01T00:21:13;46.67;;;29.70;;
69030;SDS011;56083;48.774;8.942;2022-09-01T00:23:39;42.83;;;29.33;;
69030;SDS011;56083;48.774;8.942;2022-09-01T00:26:05;39.72;;;27.17;;
69030;SDS011;56083;48.774;8.942;2022-09-01T00:28:34;42.38;;;26.73;;
69030;SDS011;56083;48.774;8.942;2022-09-01T00:31:02;42.90;;;27.33;;
69030;SDS011;56083;48.774;8.942;2022-09-01T00:33:28;41.70;;;27.33;;
69030;SDS011;56083;48.774;8.942;2022-09-01T00:35:54;38.05;;;26.63;;
69030;SDS011;56083;48.774;8.942;2022-09-01T00:38:20;43.25;;;29.35;;
69030;SDS011;56083;48.774;8.942;2022-09-01T00:40:45;48.97;;;30.23;;
69030;SDS011;56083;48.774;8.942;2022-09-01T00:43:12;39.83;;;27.50;;
69030;SDS011;56083;48.774;8.942;2022-09-01T00:45:39;41.38;;;27.75;;
69030;SDS011;56083;48.774;8.942;2022-09-01T00:48:06;38.40;;;26.33;;
69030;SDS011;56083;48.774;8.942;2022-09-01T00:50:33;40.22;;;27.70;;
69030;SDS011;56083;48.774;8.942;2022-09-01T00:53:00;46.15;;;31.20;;
69030;SDS011;56083;48.774;8.942;2022-09-01T00:55:29;41.08;;;28.08;;
69030;SDS011;56083;48.774;8.942;2022-09-01T00:57:57;34.72;;;25.73;;
69030;SDS011;56083;48.774;8.942;2022-09-01T01:00:25;44.67;;;27.17;;
69030;SDS011;56083;48.774;8.942;2022-09-01T01:02:53;50.45;;;32.58;;
69030;SDS011;56083;48.774;8.942;2022-09-01T01:05:22;83.05;;;36.95;;
69030;SDS011;56083;48.774;8.942;2022-09-01T01:07:52;77.32;;;37.53;;
69030;SDS011;56083;48.774;8.942;2022-09-01T01:10:18;95.65;;;39.63;;
69030;SDS011;56083;48.774;8.942;2022-09-01T01:12:46;94.80;;;38.70;;
69030;SDS011;56083;48.774;8.942;2022-09-01T01:15:15;106.10;;;42.10;;
69030;SDS011;56083;48.774;8.942;2022-09-01T01:17:42;95.05;;;42.78;;
69030;SDS011;56083;48.774;8.942;2022-09-01T01:20:09;82.22;;;40.92;;
69030;SDS011;56083;48.774;8.942;2022-09-01T01:23:13;55.58;;;35.15;;
69030;SDS011;56083;48.774;8.942;2022-09-01T01:25:47;57.65;;;34.90;;
69030;SDS011;56083;48.774;8.942;2022-09-01T01:28:22;47.38;;;32.75;;
69030;SDS011;56083;48.774;8.942;2022-09-01T01:31:03;41.08;;;31.20;;
69030;SDS011;56083;48.774;8.942;2022-09-01T01:33:40;42.92;;;32.40;;
69030;SDS011;56083;48.774;8.942;2022-09-01T01:36:11;35.78;;;28.60;;
69030;SDS011;56083;48.774;8.942;2022-09-01T01:38:45;47.28;;;33.47;;
69030;SDS011;56083;48.774;8.942;2022-09-01T01:41:13;49.25;;;34.28;;
69030;SDS011;56083;48.774;8.942;2022-09-01T01:43:40;50.88;;;32.95;;
69030;SDS011;56083;48.774;8.942;2022-09-01T01:46:07;42.30;;;31.10;;
69030;SDS011;56083;48.774;8.942;2022-09-01T01:48:35;42.05;;;30.42;;
69030;SDS011;56083;48.774;8.942;2022-09-01T01:51:03;46.72;;;30.23;;
69030;SDS011;56083;48.774;8.942;2022-09-01T01:53:29;51.25;;;33.53;;
69030;SDS011;56083;48.774;8.942;2022-09-01T01:55:56;56.20;;;34.85;;
69030;SDS011;56083;48.774;8.942;2022-09-01T01:58:23;53.78;;;32.95;;
69030;SDS011;56083;48.774;8.942;2022-09-01T02:00:50;50.08;;;33.40;;
69030;SDS011;56083;48.774;8.942;2022-09-01T02:03:18;43.08;;;29.20;;
69030;SDS011;56083;48.774;8.942;2022-09-01T02:05:46;41.17;;;28.90;;
69030;SDS011;56083;48.774;8.942;2022-09-01T02:08:13;45.70;;;29.60;;
69030;SDS011;56083;48.774;8.942;2022-09-01T02:10:45;40.17;;;27.73;;
69030;SDS011;56083;48.774;8.942;2022-09-01T02:13:13;42.33;;;29.67;;
69030;SDS011;56083;48.774;8.942;2022-09-01T02:15:47;34.85;;;25.52;;
69030;SDS011;56083;48.774;8.942;2022-09-01T02:18:19;38.90;;;27.55;;
69030;SDS011;56083;48.774;8.942;2022-09-01T02:20:48;44.03;;;28.38;;
69030;SDS011;56083;48.774;8.942;2022-09-01T02:23:16;45.92;;;29.58;;
69030;SDS011;56083;48.774;8.942;2022-09-01T02:25:47;43.33;;;27.70;;
69030;SDS011;56083;48.774;8.942;2022-09-01T02:28:15;38.65;;;26.80;;
69030;SDS011;56083;48.774;8.942;2022-09-01T02:30:44;37.75;;;26.92;;
69030;SDS011;56083;48.774;8.942;2022-09-01T02:33:13;39.13;;;28.10;;
69030;SDS011;56083;48.774;8.942;2022-09-01T02:35:47;43.25;;;29.08;;
69030;SDS011;56083;48.774;8.942;2022-09-01T02:38:15;43.53;;;27.75;;
69030;SDS011;56083;48.774;8.942;2022-09-01T02:40:45;44.00;;;28.75;;
69030;SDS011;56083;48.774;8.942;2022-09-01T02:43:12;45.95;;;30.00;;
69030;SDS011;56083;48.774;8.942;2022-09-01T02:45:44;42.78;;;29.98;;
69030;SDS011;56083;48.774;8.942;2022-09-01T02:48:11;42.65;;;29.67;;
69030;SDS011;56083;48.774;8.942;2022-09-01T02:50:37;42.33;;;30.10;;
69030;SDS011;56083;48.774;8.942;2022-09-01T02:53:04;56.10;;;35.30;;
69030;SDS011;56083;48.774;8.942;2022-09-01T02:55:36;52.85;;;33.25;;
69030;SDS011;56083;48.774;8.942;2022-09-01T02:58:02;46.03;;;32.10;;
69030;SDS011;56083;48.774;8.942;2022-09-01T03:00:28;48.67;;;32.47;;
69030;SDS011;56083;48.774;8.942;2022-09-01T03:02:56;54.25;;;36.20;;
69030;SDS011;56083;48.774;8.942;2022-09-01T03:05:26;48.22;;;32.63;;
69030;SDS011;56083;48.774;8.942;2022-09-01T03:08:03;53.10;;;32.13;;
69030;SDS011;56083;48.774;8.942;2022-09-01T03:10:37;49.38;;;32.15;;
69030;SDS011;56083;48.774;8.942;2022-09-01T03:13:12;43.03;;;29.52;;
69030;SDS011;56083;48.774;8.942;2022-09-01T03:15:49;54.67;;;32.45;;
69030;SDS011;56083;48.774;8.942;2022-09-01T03:18:18;52.55;;;31.95;;
69030;SDS011;56083;48.774;8.942;2022-09-01T03:20:44;47.70;;;32.63;;
69030;SDS011;56083;48.774;8.942;2022-09-01T03:23:12;56.30;;;36.90;;
69030;SDS011;56083;48.774;8.942;2022-09-01T03:25:41;50.75;;;36.53;;
69030;SDS011;56083;48.774;8.942;2022-09-01T03:28:07;52.05;;;36.17;;
69030;SDS011;56083;48.774;8.942;2022-09-01T03:30:35;64.07;;;40.65;;
69030;SDS011;56083;48.774;8.942;2022-09-01T03:33:04;66.35;;;38.42;;
69030;SDS011;56083;48.774;8.942;2022-09-01T03:35:31;63.67;;;38.88;;
69030;SDS011;56083;48.774;8.942;2022-09-01T03:37:57;68.97;;;41.53;;
69030;SDS011;56083;48.774;8.942;2022-09-01T03:40:25;67.78;;;40.70;;
69030;SDS011;56083;48.774;8.942;2022-09-01T03:42:53;57.20;;;37.45;;
69030;SDS011;56083;48.774;8.942;2022-09-01T03:45:19;51.30;;;33.83;;
69030;SDS011;56083;48.774;8.942;2022-09-01T03:47:46;50.50;;;33.83;;
69030;SDS011;56083;48.774;8.942;2022-09-01T03:50:16;44.35;;;30.90;;
69030;SDS011;56083;48.774;8.942;2022-09-01T03:52:53;41.72;;;29.77;;
69030;SDS011;56083;48.774;8.942;2022-09-01T03:55:25;45.92;;;31.77;;
69030;SDS011;56083;48.774;8.942;2022-09-01T03:57:55;61.55;;;38.00;;
69030;SDS011;56083;48.774;8.942;2022-09-01T04:00:24;49.25;;;34.22;;
69030;SDS011;56083;48.774;8.942;2022-09-01T04:02:54;52.38;;;33.28;;
69030;SDS011;56083;48.774;8.942;2022-09-01T04:05:22;51.63;;;32.53;;
69030;SDS011;56083;48.774;8.942;2022-09-01T04:07:53;59.65;;;36.65;;
69030;SDS011;56083;48.774;8.942;2022-09-01T04:10:20;54.60;;;34.72;;
69030;SDS011;56083;48.774;8.942;2022-09-01T04:12:46;59.65;;;38.03;;
69030;SDS011;56083;48.774;8.942;2022-09-01T04:15:12;50.30;;;33.63;;
69030;SDS011;56083;48.774;8.942;2022-09-01T04:17:41;55.25;;;37.38;;
69030;SDS011;56083;48.774;8.942;2022-09-01T04:20:26;56.83;;;34.40;;
69030;SDS011;56083;48.774;8.942;2022-09-01T04:22:51;74.18;;;35.80;;
69030;SDS011;56083;48.774;8.942;2022-09-01T04:25:17;39.67;;;29.35;;
69030;SDS011;56083;48.774;8.942;2022-09-01T04:27:51;38.50;;;28.85;;
69030;SDS011;56083;48.774;8.942;2022-09-01T04:30:21;32.03;;;26.10;;
69030;SDS011;56083;48.774;8.942;2022-09-01T04:32:50;31.10;;;25.38;;
69030;SDS011;56083;48.774;8.942;2022-09-01T04:35:20;31.17;;;24.40;;
69030;SDS011;56083;48.774;8.942;2022-09-01T04:37:52;149.80;;;29.15;;
69030;SDS011;56083;48.774;8.942;2022-09-01T04:40:18;32.35;;;25.80;;
69030;SDS011;56083;48.774;8.942;2022-09-01T04:42:47;33.08;;;28.02;;
69030;SDS011;56083;48.774;8.942;2022-09-01T04:45:13;34.42;;;27.60;;
69030;SDS011;56083;48.774;8.942;2022-09-01T04:47:40;41.45;;;29.88;;
69030;SDS011;56083;48.774;8.942;2022-09-01T04:50:07;46.25;;;30.90;;
69030;SDS011;56083;48.774;8.942;2022-09-01T04:52:41;155.98;;;36.63;;
69030;SDS011;56083;48.774;8.942;2022-09-01T04:55:09;60.08;;;34.72;;
69030;SDS011;56083;48.774;8.942;2022-09-01T04:57:46;61.05;;;35.75;;
69030;SDS011;56083;48.774;8.942;2022-09-01T05:00:17;157.23;;;42.22;;
69030;SDS011;56083;48.774;8.942;2022-09-01T05:02:49;166.23;;;42.00;;
69030;SDS011;56083;48.774;8.942;2022-09-01T05:05:16;110.40;;;44.05;;
69030;SDS011;56083;48.774;8.942;2022-09-01T05:07:42;86.32;;;42.40;;
69030;SDS011;56083;48.774;8.942;2022-09-01T05:10:08;108.35;;;42.15;;
69030;SDS011;56083;48.774;8.942;2022-09-01T05:12:34;62.45;;;39.63;;
69030;SDS011;56083;48.774;8.942;2022-09-01T05:15:00;60.67;;;40.15;;
69030;SDS011;56083;48.774;8.942;2022-09-01T05:17:30;50.63;;;36.20;;
69030;SDS011;56083;48.774;8.942;2022-09-01T05:19:56;46.70;;;34.75;;
69030;SDS011;56083;48.774;8.942;2022-09-01T05:22:22;48.33;;;34.30;;
69030;SDS011;56083;48.774;8.942;2022-09-01T05:24:49;45.88;;;32.42;;
69030;SDS011;56083;48.774;8.942;2022-09-01T05:27:17;41.40;;;31.55;;
69030;SDS011;56083;48.774;8.942;2022-09-01T05:29:43;44.08;;;31.33;;
69030;SDS011;56083;48.774;8.942;2022-09-01T05:32:10;42.90;;;32.90;;
69030;SDS011;56083;48.774;8.942;2022-09-01T05:34:37;40.35;;;30.40;;
69030;SDS011;56083;48.774;8.942;2022-09-01T05:37:05;37.90;;;28.42;;
69030;SDS011;56083;48.774;8.942;2022-09-01T05:39:32;39.03;;;27.90;;
69030;SDS011;56083;48.774;8.942;2022-09-01T05:42:00;42.20;;;27.85;;
69030;SDS011;56083;48.774;8.942;2022-09-01T05:44:28;44.47;;;26.55;;
69030;SDS011;56083;48.774;8.942;2022-09-01T05:46:53;35.50;;;27.70;;
69030;SDS011;56083;48.774;8.942;2022-09-01T05:49:23;36.80;;;27.77;;
69030;SDS011;56083;48.774;8.942;2022-09-01T05:51:50;33.00;;;25.92;;
69030;SDS011;56083;48.774;8.942;2022-09-01T05:54:23;28.75;;;23.70;;
69030;SDS011;56083;48.774;8.942;2022-09-01T05:56:51;29.95;;;23.35;;
69030;SDS011;56083;48.774;8.942;2022-09-01T05:59:19;41.35;;;25.70;;
69030;SDS011;56083;48.774;8.942;2022-09-01T06:01:45;34.80;;;24.98;;
69030;SDS011;56083;48.774;8.942;2022-09-01T06:04:11;36.92;;;25.58;;
69030;SDS011;56083;48.774;8.942;2022-09-01T06:06:39;32.78;;;24.67;;
69030;SDS011;56083;48.774;8.942;2022-09-01T06:09:10;34.10;;;25.90;;
69030;SDS011;56083;48.774;8.942;2022-09-01T06:11:37;37.50;;;28.10;;
69030;SDS011;56083;48.774;8.942;2022-09-01T06:14:05;37.88;;;28.80;;
69030;SDS011;56083;48.774;8.942;2022-09-01T06:16:32;32.33;;;25.23;;
69030;SDS011;56083;48.774;8.942;2022-09-01T06:19:00;30.30;;;25.08;;
69030;SDS011;56083;48.774;8.942;2022-09-01T06:23:53;29.60;;;21.13;;
69030;SDS011;56083;48.774;8.942;2022-09-01T06:26:21;24.48;;;17.33;;
69030;SDS011;56083;48.774;8.942;2022-09-01T06:28:51;20.35;;;16.73;;
69030;SDS011;56083;48.774;8.942;2022-09-01T06:31:19;24.63;;;15.63;;
69030;SDS011;56083;48.774;8.942;2022-09-01T06:33:52;17.10;;;14.60;;
69030;SDS011;56083;48.774;8.942;2022-09-01T06:36:22;19.58;;;14.20;;
69030;SDS011;56083;48.774;8.942;2022-09-01T06:38:50;17.27;;;14.60;;
69030;SDS011;56083;48.774;8.942;2022-09-01T06:41:17;17.77;;;13.63;;
69030;SDS011;56083;48.774;8.942;2022-09-01T06:43:47;16.70;;;13.02;;
69030;SDS011;56083;48.774;8.942;2022-09-01T06:46:15;15.50;;;13.00;;
69030;SDS011;56083;48.774;8.942;2022-09-01T06:48:42;16.30;;;13.60;;
69030;SDS011;56083;48.774;8.942;2022-09-01T06:51:14;16.33;;;11.98;;
69030;SDS011;56083;48.774;8.942;2022-09-01T06:53:43;14.57;;;11.32;;
69030;SDS011;56083;48.774;8.942;2022-09-01T06:56:10;15.00;;;11.23;;
69030;SDS011;56083;48.774;8.942;2022-09-01T06:58:41;13.43;;;11.10;;
69030;SDS011;56083;48.774;8.942;2022-09-01T07:01:09;14.15;;;12.20;;
69030;SDS011;56083;48.774;8.942;2022-09-01T07:03:39;17.88;;;14.65;;
69030;SDS011;56083;48.774;8.942;2022-09-01T07:06:06;23.35;;;14.70;;
69030;SDS011;56083;48.774;8.942;2022-09-01T07:08:34;18.83;;;14.80;;
69030;SDS011;56083;48.774;8.942;2022-09-01T07:11:03;20.30;;;16.17;;
69030;SDS011;56083;48.774;8.942;2022-09-01T07:13:31;21.52;;;15.63;;
69030;SDS011;56083;48.774;8.942;2022-09-01T07:15:58;20.85;;;16.00;;
69030;SDS011;56083;48.774;8.942;2022-09-01T07:18:24;20.30;;;16.15;;
69030;SDS011;56083;48.774;8.942;2022-09-01T07:20:51;27.10;;;15.30;;
69030;SDS011;56083;48.774;8.942;2022-09-01T07:23:18;20.33;;;15.23;;
69030;SDS011;56083;48.774;8.942;2022-09-01T07:25:46;28.65;;;17.17;;
69030;SDS011;56083;48.774;8.942;2022-09-01T07:28:13;25.13;;;17.67;;
69030;SDS011;56083;48.774;8.942;2022-09-01T07:30:42;26.52;;;17.60;;
69030;SDS011;56083;48.774;8.942;2022-09-01T07:33:12;22.02;;;17.17;;
69030;SDS011;56083;48.774;8.942;2022-09-01T07:35:44;24.15;;;16.48;;
69030;SDS011;56083;48.774;8.942;2022-09-01T07:38:11;24.67;;;15.93;;
69030;SDS011;56083;48.774;8.942;2022-09-01T07:40:37;19.80;;;15.77;;
69030;SDS011;56083;48.774;8.942;2022-09-01T07:43:15;19.48;;;16.33;;
69030;SDS011;56083;48.774;8.942;2022-09-01T07:45:46;21.88;;;17.10;;
69030;SDS011;56083;48.774;8.942;2022-09-01T07:48:14;23.88;;;16.23;;
69030;SDS011;56083;48.774;8.942;2022-09-01T07:50:42;23.63;;;16.48;;
69030;SDS011;56083;48.774;8.942;2022-09-01T07:53:11;18.05;;;14.02;;
69030;SDS011;56083;48.774;8.942;2022-09-01T07:55:40;18.27;;;12.63;;
69030;SDS011;56083;48.774;8.942;2022-09-01T07:58:06;17.08;;;11.38;;
69030;SDS011;56083;48.774;8.942;2022-09-01T08:00:32;16.00;;;10.70;;
69030;SDS011;56083;48.774;8.942;2022-09-01T08:02:58;13.10;;;10.35;;
69030;SDS011;56083;48.774;8.942;2022-09-01T08:05:24;15.73;;;10.80;;
69030;SDS011;56083;48.774;8.942;2022-09-01T08:07:51;12.77;;;11.32;;
69030;SDS011;56083;48.774;8.942;2022-09-01T08:10:17;16.42;;;12.38;;
69030;SDS011;56083;48.774;8.942;2022-09-01T08:12:43;13.93;;;11.75;;
69030;SDS011;56083;48.774;8.942;2022-09-01T08:15:09;18.65;;;12.02;;
69030;SDS011;56083;48.774;8.942;2022-09-01T08:17:38;15.45;;;13.05;;
69030;SDS011;56083;48.774;8.942;2022-09-01T08:20:05;19.00;;;12.88;;
69030;SDS011;56083;48.774;8.942;2022-09-01T08:22:33;14.27;;;12.77;;
69030;SDS011;56083;48.774;8.942;2022-09-01T08:24:59;19.40;;;13.27;;
69030;SDS011;56083;48.774;8.942;2022-09-01T08:27:25;18.02;;;12.68;;
69030;SDS011;56083;48.774;8.942;2022-09-01T08:29:50;20.20;;;13.30;;
69030;SDS011;56083;48.774;8.942;2022-09-01T08:32:16;17.98;;;13.35;;
69030;SDS011;56083;48.774;8.942;2022-09-01T08:34:42;17.30;;;13.50;;
69030;SDS011;56083;48.774;8.942;2022-09-01T08:37:07;18.98;;;12.82;;
69030;SDS011;56083;48.774;8.942;2022-09-01T08:39:33;17.38;;;13.40;;
69030;SDS011;56083;48.774;8.942;2022-09-01T08:42:21;15.20;;;12.25;;
69030;SDS011;56083;48.774;8.942;2022-09-01T08:45:34;21.25;;;11.65;;
69030;SDS011;56083;48.774;8.942;2022-09-01T08:48:13;15.23;;;12.10;;
69030;SDS011;56083;48.774;8.942;2022-09-01T08:50:42;16.33;;;12.35;;
69030;SDS011;56083;48.774;8.942;2022-09-01T08:53:30;16.83;;;12.80;;
69030;SDS011;56083;48.774;8.942;2022-09-01T08:56:00;15.40;;;12.48;;
69030;SDS011;56083;48.774;8.942;2022-09-01T08:58:27;15.90;;;11.25;;
69030;SDS011;56083;48.774;8.942;2022-09-01T09:00:57;16.83;;;11.63;;
69030;SDS011;56083;48.774;8.942;2022-09-01T09:06:32;14.40;;;12.38;;
69030;SDS011;56083;48.774;8.942;2022-09-01T09:09:12;14.93;;;11.02;;
69030;SDS011;56083;48.774;8.942;2022-09-01T09:17:50;15.73;;;10.77;;
69030;SDS011;56083;48.774;8.942;2022-09-01T09:20:24;12.50;;;9.38;;
69030;SDS011;56083;48.774;8.942;2022-09-01T09:22:51;11.07;;;9.48;;
69030;SDS011;56083;48.774;8.942;2022-09-01T09:25:19;11.50;;;8.65;;
69030;SDS011;56083;48.774;8.942;2022-09-01T09:27:45;12.00;;;9.55;;
69030;SDS011;56083;48.774;8.942;2022-09-01T09:30:14;9.68;;;8.18;;
69030;SDS011;56083;48.774;8.942;2022-09-01T09:32:45;11.02;;;6.93;;
69030;SDS011;56083;48.774;8.942;2022-09-01T09:35:26;9.13;;;6.20;;
69030;SDS011;56083;48.774;8.942;2022-09-01T09:40:56;8.05;;;5.93;;
69030;SDS011;56083;48.774;8.942;2022-09-01T09:43:23;6.43;;;5.32;;
69030;SDS011;56083;48.774;8.942;2022-09-01T09:45:50;6.15;;;5.05;;
69030;SDS011;56083;48.774;8.942;2022-09-01T09:48:47;8.70;;;5.07;;
69030;SDS011;56083;48.774;8.942;2022-09-01T09:51:20;6.97;;;5.25;;
69030;SDS011;56083;48.774;8.942;2022-09-01T09:53:46;7.35;;;5.07;;
69030;SDS011;56083;48.774;8.942;2022-09-01T09:56:17;7.55;;;5.28;;
69030;SDS011;56083;48.774;8.942;2022-09-01T09:58:47;6.72;;;4.80;;
69030;SDS011;56083;48.774;8.942;2022-09-01T10:01:27;6.53;;;5.32;;
69030;SDS011;56083;48.774;8.942;2022-09-01T10:03:55;11.05;;;4.78;;
69030;SDS011;56083;48.774;8.942;2022-09-01T10:06:43;5.68;;;4.60;;
69030;SDS011;56083;48.774;8.942;2022-09-01T10:09:16;6.13;;;4.43;;
69030;SDS011;56083;48.774;8.942;2022-09-01T10:11:59;5.70;;;3.25;;
69030;SDS011;56083;48.774;8.942;2022-09-01T10:14:49;4.97;;;3.13;;
69030;SDS011;56083;48.774;8.942;2022-09-01T10:17:18;4.63;;;2.58;;
69030;SDS011;56083;48.774;8.942;2022-09-01T10:22:28;3.78;;;2.30;;
69030;SDS011;56083;48.774;8.942;2022-09-01T10:24:56;4.63;;;2.92;;
69030;SDS011;56083;48.774;8.942;2022-09-01T10:27:24;6.75;;;4.28;;
69030;SDS011;56083;48.774;8.942;2022-09-01T10:32:43;7.47;;;4.47;;
69030;SDS011;56083;48.774;8.942;2022-09-01T10:35:33;5.80;;;3.65;;
69030;SDS011;56083;48.774;8.942;2022-09-01T10:38:04;6.00;;;3.72;;
69030;SDS011;56083;48.774;8.942;2022-09-01T10:40:36;7.20;;;3.97;;
69030;SDS011;56083;48.774;8.942;2022-09-01T10:45:51;7.32;;;3.75;;
69030;SDS011;56083;48.774;8.942;2022-09-01T10:48:21;6.43;;;4.00;;
69030;SDS011;56083;48.774;8.942;2022-09-01T10:51:40;5.55;;;3.40;;
69030;SDS011;56083;48.774;8.942;2022-09-01T10:59:09;6.47;;;3.58;;
69030;SDS011;56083;48.774;8.942;2022-09-01T11:04:16;4.65;;;2.60;;
69030;SDS011;56083;48.774;8.942;2022-09-01T11:09:44;2.75;;;1.88;;
69030;SDS011;56083;48.774;8.942;2022-09-01T11:15:03;3.25;;;1.92;;
69030;SDS011;56083;48.774;8.942;2022-09-01T11:23:11;3.38;;;2.25;;
69030;SDS011;56083;48.774;8.942;2022-09-01T11:25:58;4.05;;;2.67;;
69030;SDS011;56083;48.774;8.942;2022-09-01T11:31:10;4.75;;;2.20;;
69030;SDS011;56083;48.774;8.942;2022-09-01T11:34:02;2.08;;;1.88;;
69030;SDS011;56083;48.774;8.942;2022-09-01T11:47:31;3.92;;;1.80;;
69030;SDS011;56083;48.774;8.942;2022-09-01T11:50:06;4.45;;;1.88;;
69030;SDS011;56083;48.774;8.942;2022-09-01T11:52:42;2.50;;;2.00;;
69030;SDS011;56083;48.774;8.942;2022-09-01T11:55:26;1.60;;;1.45;;
69030;SDS011;56083;48.774;8.942;2022-09-01T11:57:57;4.15;;;1.80;;
69030;SDS011;56083;48.774;8.942;2022-09-01T12:00:25;4.60;;;2.00;;
69030;SDS011;56083;48.774;8.942;2022-09-01T12:02:53;2.58;;;1.95;;
69030;SDS011;56083;48.774;8.942;2022-09-01T12:05:32;4.07;;;1.90;;
69030;SDS011;56083;48.774;8.942;2022-09-01T12:08:10;3.55;;;2.03;;
69030;SDS011;56083;48.774;8.942;2022-09-01T12:10:42;3.88;;;2.10;;
69030;SDS011;56083;48.774;8.942;2022-09-01T12:13:19;2.63;;;2.10;;
69030;SDS011;56083;48.774;8.942;2022-09-01T12:15:56;4.78;;;2.60;;
69030;SDS011;56083;48.774;8.942;2022-09-01T12:18:28;3.53;;;2.33;;
69030;SDS011;56083;48.774;8.942;2022-09-01T12:20:57;3.20;;;2.55;;
69030;SDS011;56083;48.774;8.942;2022-09-01T12:23:25;3.40;;;2.42;;
69030;SDS011;56083;48.774;8.942;2022-09-01T12:25:54;6.88;;;2.30;;
69030;SDS011;56083;48.774;8.942;2022-09-01T12:28:23;2.80;;;2.50;;
69030;SDS011;56083;48.774;8.942;2022-09-01T12:30:57;3.65;;;2.22;;
69030;SDS011;56083;48.774;8.942;2022-09-01T12:33:24;3.72;;;2.00;;
69030;SDS011;56083;48.774;8.942;2022-09-01T12:35:50;3.42;;;2.20;;
69030;SDS011;56083;48.774;8.942;2022-09-01T12:38:35;5.93;;;1.95;;
69030;SDS011;56083;48.774;8.942;2022-09-01T12:41:01;3.72;;;1.90;;
69030;SDS011;56083;48.774;8.942;2022-09-01T12:43:37;1.90;;;1.75;;
69030;SDS011;56083;48.774;8.942;2022-09-01T12:46:05;2.08;;;1.60;;
69030;SDS011;56083;48.774;8.942;2022-09-01T12:48:35;4.93;;;1.92;;
69030;SDS011;56083;48.774;8.942;2022-09-01T12:51:14;3.72;;;1.85;;
69030;SDS011;56083;48.774;8.942;2022-09-01T12:53:52;1.75;;;1.40;;
69030;SDS011;56083;48.774;8.942;2022-09-01T12:56:30;3.08;;;1.63;;
69030;SDS011;56083;48.774;8.942;2022-09-01T12:59:06;2.47;;;1.65;;
69030;SDS011;56083;48.774;8.942;2022-09-01T13:01:39;3.70;;;1.90;;
69030;SDS011;56083;48.774;8.942;2022-09-01T13:04:06;4.47;;;2.05;;
69030;SDS011;56083;48.774;8.942;2022-09-01T13:06:47;2.75;;;1.85;;
69030;SDS011;56083;48.774;8.942;2022-09-01T13:09:14;1.75;;;1.50;;
69030;SDS011;56083;48.774;8.942;2022-09-01T13:11:40;3.03;;;1.48;;
69030;SDS011;56083;48.774;8.942;2022-09-01T13:14:07;4.18;;;1.50;;
69030;SDS011;56083;48.774;8.942;2022-09-01T13:16:33;1.60;;;1.50;;
69030;SDS011;56083;48.774;8.942;2022-09-01T13:19:01;1.45;;;1.35;;
69030;SDS011;56083;48.774;8.942;2022-09-01T13:21:27;2.00;;;1.70;;
69030;SDS011;56083;48.774;8.942;2022-09-01T13:23:54;5.40;;;1.80;;
69030;SDS011;56083;48.774;8.942;2022-09-01T13:26:20;3.90;;;1.92;;
69030;SDS011;56083;48.774;8.942;2022-09-01T13:28:46;2.03;;;1.80;;
69030;SDS011;56083;48.774;8.942;2022-09-01T13:31:12;4.55;;;1.85;;
69030;SDS011;56083;48.774;8.942;2022-09-01T13:33:38;6.47;;;1.83;;
69030;SDS011;56083;48.774;8.942;2022-09-01T13:36:04;5.68;;;1.80;;
69030;SDS011;56083;48.774;8.942;2022-09-01T13:38:30;5.57;;;2.10;;
69030;SDS011;56083;48.774;8.942;2022-09-01T13:40:56;4.03;;;2.15;;
69030;SDS011;56083;48.774;8.942;2022-09-01T13:43:24;4.43;;;2.55;;
69030;SDS011;56083;48.774;8.942;2022-09-01T13:45:51;6.03;;;2.40;;
69030;SDS011;56083;48.774;8.942;2022-09-01T13:48:17;5.85;;;2.45;;
69030;SDS011;56083;48.774;8.942;2022-09-01T13:50:47;4.75;;;2.30;;
69030;SDS011;56083;48.774;8.942;2022-09-01T13:53:15;3.08;;;2.40;;
69030;SDS011;56083;48.774;8.942;2022-09-01T13:55:41;5.82;;;2.70;;
69030;SDS011;56083;48.774;8.942;2022-09-01T13:58:07;5.43;;;2.65;;
69030;SDS011;56083;48.774;8.942;2022-09-01T14:00:38;5.43;;;2.70;;
69030;SDS011;56083;48.774;8.942;2022-09-01T14:03:06;5.13;;;2.67;;
69030;SDS011;56083;48.774;8.942;2022-09-01T14:05:38;2.75;;;2.47;;
69030;SDS011;56083;48.774;8.942;2022-09-01T14:08:06;4.05;;;2.67;;
69030;SDS011;56083;48.774;8.942;2022-09-01T14:10:36;3.05;;;2.38;;
69030;SDS011;56083;48.774;8.942;2022-09-01T14:13:04;4.57;;;2.30;;
69030;SDS011;56083;48.774;8.942;2022-09-01T14:15:29;2.22;;;2.03;;
69030;SDS011;56083;48.774;8.942;2022-09-01T14:17:55;4.13;;;2.10;;
69030;SDS011;56083;48.774;8.942;2022-09-01T14:20:23;3.40;;;2.10;;
69030;SDS011;56083;48.774;8.942;2022-09-01T14:22:51;2.63;;;2.10;;
69030;SDS011;56083;48.774;8.942;2022-09-01T14:25:18;4.97;;;2.35;;
69030;SDS011;56083;48.774;8.942;2022-09-01T14:27:45;4.93;;;2.10;;
69030;SDS011;56083;48.774;8.942;2022-09-01T14:30:30;3.92;;;2.30;;
69030;SDS011;56083;48.774;8.942;2022-09-01T14:32:57;3.47;;;2.22;;
69030;SDS011;56083;48.774;8.942;2022-09-01T14:35:24;4.15;;;2.00;;
69030;SDS011;56083;48.774;8.942;2022-09-01T14:37:51;2.88;;;2.20;;
69030;SDS011;56083;48.774;8.942;2022-09-01T14:40:18;3.42;;;2.25;;
69030;SDS011;56083;48.774;8.942;2022-09-01T14:42:46;5.15;;;1.85;;
69030;SDS011;56083;48.774;8.942;2022-09-01T14:45:20;2.80;;;1.90;;
69030;SDS011;56083;48.774;8.942;2022-09-01T14:47:49;3.10;;;1.73;;
69030;SDS011;56083;48.774;8.942;2022-09-01T14:50:18;2.05;;;1.70;;
69030;SDS011;56083;48.774;8.942;2022-09-01T14:52:47;5.20;;;2.13;;
69030;SDS011;56083;48.774;8.942;2022-09-01T14:55:15;3.30;;;1.83;;
69030;SDS011;56083;48.774;8.942;2022-09-01T14:57:41;5.43;;;2.30;;
69030;SDS011;56083;48.774;8.942;2022-09-01T15:00:08;2.28;;;2.00;;
69030;SDS011;56083;48.774;8.942;2022-09-01T15:02:36;4.32;;;2.20;;
69030;SDS011;56083;48.774;8.942;2022-09-01T15:05:06;3.95;;;2.15;;
69030;SDS011;56083;48.774;8.942;2022-09-01T15:07:33;6.00;;;2.33;;
69030;SDS011;56083;48.774;8.942;2022-09-01T15:09:59;2.40;;;1.70;;
69030;SDS011;56083;48.774;8.942;2022-09-01T15:12:25;2.70;;;1.85;;
69030;SDS011;56083;48.774;8.942;2022-09-01T15:14:54;1.95;;;1.73;;
69030;SDS011;56083;48.774;8.942;2022-09-01T15:17:23;3.08;;;1.70;;
69030;SDS011;56083;48.774;8.942;2022-09-01T15:19:49;4.43;;;2.13;;
69030;SDS011;56083;48.774;8.942;2022-09-01T15:22:15;4.95;;;2.00;;
69030;SDS011;56083;48.774;8.942;2022-09-01T15:24:41;2.60;;;1.90;;
69030;SDS011;56083;48.774;8.942;2022-09-01T15:27:07;2.17;;;1.77;;
69030;SDS011;56083;48.774;8.942;2022-09-01T15:29:32;3.83;;;2.33;;
69030;SDS011;56083;48.774;8.942;2022-09-01T15:31:59;3.20;;;2.08;;
69030;SDS011;56083;48.774;8.942;2022-09-01T15:34:26;2.90;;;1.77;;
69030;SDS011;56083;48.774;8.942;2022-09-01T15:36:52;3.33;;;2.05;;
69030;SDS011;56083;48.774;8.942;2022-09-01T15:39:18;5.32;;;1.77;;
69030;SDS011;56083;48.774;8.942;2022-09-01T15:41:43;3.10;;;1.70;;